TAY6CA LGAV-LCLK
Flight info
| Callsign | TAY6CA |
|---|---|
| Flight time | 1h 19m |
| Altitude | 37000 |
| Route | KEA UL995 RDS UM601 EVENO M601 BONEK |
| Aircraft | B738/M-SDE2E3FGHIRWXY/LB1 |
Departure
| Time | 2026-05-05 07:14 |
|---|---|
| Airport | Athens Eleftherios Venizelos International Airport (LGAV) |
Arrival
| Time | 2026-05-05 08:34 |
|---|---|
| Airport | Larnaca International Airport (LCLK) |
| Time | Latitude | Longitude | Altitude | Speed | Heading |
|---|---|---|---|---|---|
| 2026-05-05 06:52 | 37.92621 | 23.94021 | 301 ft | 0 kts | 218° |
| 2026-05-05 07:07 | 37.92628 | 23.94027 | 301 ft | 4 kts | 219° |
| 2026-05-05 07:07 | 37.92648 | 23.94050 | 304 ft | 4 kts | 219° |
| 2026-05-05 07:08 | 37.92665 | 23.94067 | 303 ft | 4 kts | 211° |
| 2026-05-05 07:08 | 37.92684 | 23.94075 | 301 ft | 4 kts | 146° |
| 2026-05-05 07:08 | 37.92700 | 23.94053 | 302 ft | 4 kts | 127° |
| 2026-05-05 07:08 | 37.92716 | 23.94026 | 302 ft | 3 kts | 127° |
| 2026-05-05 07:09 | 37.92718 | 23.94022 | 301 ft | 1 kts | 127° |
| 2026-05-05 07:11 | 37.92716 | 23.94025 | 302 ft | 1 kts | 127° |
| 2026-05-05 07:11 | 37.92700 | 23.94052 | 302 ft | 7 kts | 127° |
| 2026-05-05 07:11 | 37.92671 | 23.94099 | 302 ft | 8 kts | 127° |
| 2026-05-05 07:11 | 37.92638 | 23.94155 | 303 ft | 8 kts | 126° |
| 2026-05-05 07:12 | 37.92605 | 23.94212 | 304 ft | 8 kts | 126° |
| 2026-05-05 07:12 | 37.92574 | 23.94267 | 302 ft | 8 kts | 127° |
| 2026-05-05 07:12 | 37.92543 | 23.94319 | 304 ft | 7 kts | 124° |
| 2026-05-05 07:12 | 37.92514 | 23.94371 | 308 ft | 7 kts | 128° |
| 2026-05-05 07:13 | 37.92484 | 23.94419 | 309 ft | 7 kts | 121° |
| 2026-05-05 07:13 | 37.92484 | 23.94444 | 308 ft | 2 kts | 59° |
| 2026-05-05 07:13 | 37.92508 | 23.94472 | 307 ft | 9 kts | 35° |
| 2026-05-05 07:13 | 37.92640 | 23.94599 | 305 ft | 54 kts | 37° |
| 2026-05-05 07:14 | 37.93150 | 23.95087 | 294 ft | 127 kts | 37° |
| 2026-05-05 07:14 | 37.93997 | 23.95904 | 466 ft | 167 kts | 38° |
| 2026-05-05 07:14 | 37.94952 | 23.96865 | 1073 ft | 184 kts | 37° |
| 2026-05-05 07:14 | 37.95934 | 23.97838 | 2124 ft | 173 kts | 35° |
| 2026-05-05 07:15 | 37.96911 | 23.98798 | 2834 ft | 185 kts | 36° |
| 2026-05-05 07:15 | 37.97996 | 23.99857 | 3330 ft | 204 kts | 36° |
| 2026-05-05 07:15 | 37.99205 | 24.00982 | 3620 ft | 229 kts | 35° |
| 2026-05-05 07:15 | 38.00521 | 24.02203 | 4186 ft | 238 kts | 35° |
| 2026-05-05 07:16 | 38.01870 | 24.03476 | 4817 ft | 245 kts | 36° |
| 2026-05-05 07:16 | 38.03234 | 24.04781 | 5671 ft | 243 kts | 36° |
| 2026-05-05 07:16 | 38.04574 | 24.06069 | 6586 ft | 241 kts | 36° |
| 2026-05-05 07:16 | 38.05919 | 24.07366 | 7321 ft | 245 kts | 36° |
| 2026-05-05 07:17 | 38.07279 | 24.08700 | 8047 ft | 249 kts | 40° |
| 2026-05-05 07:17 | 38.08316 | 24.10486 | 8777 ft | 256 kts | 62° |
| 2026-05-05 07:17 | 38.08898 | 24.12659 | 9460 ft | 266 kts | 72° |
| 2026-05-05 07:17 | 38.08938 | 24.15078 | 9913 ft | 287 kts | 101° |
| 2026-05-05 07:18 | 38.08296 | 24.17533 | 10426 ft | 302 kts | 108° |
| 2026-05-05 07:18 | 38.07136 | 24.19839 | 10558 ft | 332 kts | 135° |
| 2026-05-05 07:18 | 38.05078 | 24.21344 | 10810 ft | 355 kts | 164° |
| 2026-05-05 07:18 | 38.02612 | 24.21886 | 11357 ft | 363 kts | 172° |
| 2026-05-05 07:19 | 38.00090 | 24.22286 | 12016 ft | 368 kts | 173° |
| 2026-05-05 07:19 | 37.97537 | 24.22671 | 12724 ft | 372 kts | 173° |
| 2026-05-05 07:19 | 37.94942 | 24.23075 | 13416 ft | 377 kts | 173° |
| 2026-05-05 07:19 | 37.92325 | 24.23501 | 14091 ft | 382 kts | 173° |
| 2026-05-05 07:20 | 37.89672 | 24.23949 | 14757 ft | 386 kts | 173° |
| 2026-05-05 07:20 | 37.87010 | 24.24410 | 15477 ft | 388 kts | 173° |
| 2026-05-05 07:20 | 37.84323 | 24.24880 | 16188 ft | 391 kts | 173° |
| 2026-05-05 07:20 | 37.81614 | 24.25356 | 16846 ft | 395 kts | 173° |
| 2026-05-05 07:21 | 37.78873 | 24.25838 | 17532 ft | 399 kts | 173° |
| 2026-05-05 07:21 | 37.76113 | 24.26323 | 18210 ft | 402 kts | 173° |
| 2026-05-05 07:21 | 37.73329 | 24.26812 | 18813 ft | 405 kts | 173° |
| 2026-05-05 07:21 | 37.70532 | 24.27303 | 19416 ft | 407 kts | 173° |
| 2026-05-05 07:22 | 37.67714 | 24.27798 | 20026 ft | 410 kts | 173° |
| 2026-05-05 07:22 | 37.64880 | 24.28294 | 20616 ft | 412 kts | 173° |
| 2026-05-05 07:22 | 37.62028 | 24.28793 | 21190 ft | 415 kts | 173° |
| 2026-05-05 07:22 | 37.59231 | 24.29546 | 21708 ft | 421 kts | 160° |
| 2026-05-05 07:23 | 37.56699 | 24.31417 | 22253 ft | 425 kts | 139° |
| 2026-05-05 07:23 | 37.54752 | 24.34217 | 22824 ft | 427 kts | 121° |
| 2026-05-05 07:23 | 37.53544 | 24.37629 | 23365 ft | 427 kts | 108° |
| 2026-05-05 07:23 | 37.52634 | 24.41130 | 23820 ft | 431 kts | 106° |
| 2026-05-05 07:24 | 37.51733 | 24.44754 | 24188 ft | 435 kts | 106° |
| 2026-05-05 07:24 | 37.50827 | 24.48411 | 24575 ft | 439 kts | 106° |
| 2026-05-05 07:24 | 37.49900 | 24.52095 | 24974 ft | 443 kts | 106° |
| 2026-05-05 07:24 | 37.48953 | 24.55797 | 25368 ft | 446 kts | 106° |
| 2026-05-05 07:25 | 37.47988 | 24.59519 | 25755 ft | 449 kts | 106° |
| 2026-05-05 07:25 | 37.47008 | 24.63271 | 26132 ft | 452 kts | 106° |
| 2026-05-05 07:25 | 37.46016 | 24.67048 | 26500 ft | 456 kts | 106° |
| 2026-05-05 07:25 | 37.45015 | 24.70853 | 26870 ft | 459 kts | 106° |
| 2026-05-05 07:26 | 37.44009 | 24.74670 | 27244 ft | 461 kts | 106° |
| 2026-05-05 07:26 | 37.42995 | 24.78513 | 27607 ft | 464 kts | 106° |
| 2026-05-05 07:26 | 37.41973 | 24.82386 | 27968 ft | 467 kts | 106° |
| 2026-05-05 07:26 | 37.40945 | 24.86272 | 28325 ft | 469 kts | 106° |
| 2026-05-05 07:27 | 37.40261 | 24.88856 | 28560 ft | 471 kts | 106° |
| 2026-05-05 07:27 | 37.38871 | 24.94102 | 29026 ft | 474 kts | 106° |
| 2026-05-05 07:27 | 37.37826 | 24.98039 | 29369 ft | 476 kts | 106° |
| 2026-05-05 07:27 | 37.37130 | 25.00657 | 29599 ft | 478 kts | 106° |
| 2026-05-05 07:28 | 37.35714 | 25.05977 | 30028 ft | 481 kts | 107° |
| 2026-05-05 07:28 | 37.35012 | 25.08609 | 30225 ft | 482 kts | 107° |
| 2026-05-05 07:28 | 37.33582 | 25.13971 | 30569 ft | 485 kts | 107° |
| 2026-05-05 07:28 | 37.32872 | 25.16631 | 30718 ft | 486 kts | 106° |
| 2026-05-05 07:29 | 37.31796 | 25.20659 | 30969 ft | 488 kts | 106° |
| 2026-05-05 07:29 | 37.30713 | 25.24703 | 31257 ft | 488 kts | 106° |
| 2026-05-05 07:29 | 37.29630 | 25.28744 | 31604 ft | 487 kts | 106° |
| 2026-05-05 07:29 | 37.28549 | 25.32770 | 31949 ft | 486 kts | 106° |
| 2026-05-05 07:30 | 37.27459 | 25.36788 | 32271 ft | 487 kts | 107° |
| 2026-05-05 07:30 | 37.24495 | 25.45970 | 32952 ft | 489 kts | 110° |
| 2026-05-05 07:30 | 37.23609 | 25.48627 | 33169 ft | 488 kts | 110° |
| 2026-05-05 07:31 | 37.22311 | 25.52568 | 33468 ft | 488 kts | 109° |
| 2026-05-05 07:31 | 37.21009 | 25.56504 | 33751 ft | 489 kts | 109° |
| 2026-05-05 07:31 | 37.19700 | 25.60437 | 34039 ft | 489 kts | 109° |
| 2026-05-05 07:31 | 37.18388 | 25.64369 | 34293 ft | 489 kts | 110° |
| 2026-05-05 07:32 | 37.17073 | 25.68302 | 34556 ft | 488 kts | 110° |
| 2026-05-05 07:32 | 37.15760 | 25.72225 | 34813 ft | 488 kts | 110° |
| 2026-05-05 07:32 | 37.14449 | 25.76142 | 35059 ft | 488 kts | 110° |
| 2026-05-05 07:32 | 37.13136 | 25.80062 | 35306 ft | 487 kts | 110° |
| 2026-05-05 07:33 | 37.11825 | 25.83972 | 35553 ft | 487 kts | 110° |
| 2026-05-05 07:33 | 37.10511 | 25.87885 | 35782 ft | 487 kts | 110° |
| 2026-05-05 07:33 | 37.09197 | 25.91795 | 36019 ft | 487 kts | 110° |
| 2026-05-05 07:33 | 37.07882 | 25.95700 | 36235 ft | 487 kts | 110° |
| 2026-05-05 07:34 | 37.06567 | 25.99603 | 36460 ft | 487 kts | 111° |
| 2026-05-05 07:34 | 37.05249 | 26.03507 | 36672 ft | 487 kts | 111° |
| 2026-05-05 07:34 | 37.03932 | 26.07404 | 36880 ft | 487 kts | 111° |
| 2026-05-05 07:34 | 37.02611 | 26.11307 | 37093 ft | 487 kts | 111° |
| 2026-05-05 07:35 | 37.01289 | 26.15209 | 37299 ft | 487 kts | 111° |
| 2026-05-05 07:35 | 36.99969 | 26.19103 | 37486 ft | 487 kts | 111° |
| 2026-05-05 07:35 | 36.98643 | 26.23006 | 37676 ft | 487 kts | 111° |
| 2026-05-05 07:35 | 36.97333 | 26.26860 | 37868 ft | 487 kts | 111° |
| 2026-05-05 07:36 | 36.96011 | 26.30759 | 38052 ft | 487 kts | 111° |
| 2026-05-05 07:36 | 36.94688 | 26.34665 | 38228 ft | 488 kts | 111° |
| 2026-05-05 07:36 | 36.93366 | 26.38565 | 38403 ft | 488 kts | 111° |
| 2026-05-05 07:36 | 36.92039 | 26.42475 | 38558 ft | 488 kts | 111° |
| 2026-05-05 07:37 | 36.90713 | 26.46377 | 38722 ft | 489 kts | 111° |
| 2026-05-05 07:37 | 36.89381 | 26.50286 | 38849 ft | 489 kts | 111° |
| 2026-05-05 07:37 | 36.88049 | 26.54187 | 38984 ft | 488 kts | 111° |
| 2026-05-05 07:37 | 36.86715 | 26.58080 | 39047 ft | 488 kts | 111° |
| 2026-05-05 07:38 | 36.84030 | 26.65901 | 39076 ft | 491 kts | 111° |
| 2026-05-05 07:38 | 36.81338 | 26.73732 | 39078 ft | 492 kts | 111° |
| 2026-05-05 07:39 | 36.78636 | 26.81588 | 39071 ft | 493 kts | 111° |
| 2026-05-05 07:39 | 36.75925 | 26.89453 | 39060 ft | 494 kts | 111° |
| 2026-05-05 07:40 | 36.73206 | 26.97324 | 39057 ft | 495 kts | 111° |
| 2026-05-05 07:40 | 36.70476 | 27.05203 | 39048 ft | 495 kts | 111° |
| 2026-05-05 07:41 | 36.67746 | 27.13067 | 39055 ft | 494 kts | 112° |
| 2026-05-05 07:41 | 36.65005 | 27.20914 | 39048 ft | 494 kts | 112° |
| 2026-05-05 07:42 | 36.62259 | 27.28749 | 39053 ft | 493 kts | 112° |
| 2026-05-05 07:42 | 36.59534 | 27.36508 | 39045 ft | 492 kts | 112° |
| 2026-05-05 07:43 | 36.56791 | 27.44304 | 39053 ft | 491 kts | 112° |
| 2026-05-05 07:43 | 36.54044 | 27.52089 | 39058 ft | 491 kts | 112° |
| 2026-05-05 07:44 | 36.51297 | 27.59857 | 39041 ft | 490 kts | 112° |
| 2026-05-05 07:44 | 36.48550 | 27.67609 | 39042 ft | 490 kts | 112° |
| 2026-05-05 07:45 | 36.45793 | 27.75363 | 39038 ft | 491 kts | 112° |
| 2026-05-05 07:45 | 36.43021 | 27.83108 | 39032 ft | 491 kts | 113° |
| 2026-05-05 07:46 | 36.40240 | 27.90857 | 39025 ft | 492 kts | 113° |
| 2026-05-05 07:46 | 36.37452 | 27.98617 | 39024 ft | 493 kts | 113° |
| 2026-05-05 07:47 | 36.34652 | 28.06390 | 39026 ft | 494 kts | 113° |
| 2026-05-05 07:47 | 36.32273 | 28.14364 | 39028 ft | 493 kts | 105° |
| 2026-05-05 07:48 | 36.30290 | 28.22511 | 39024 ft | 494 kts | 105° |
| 2026-05-05 07:48 | 36.28269 | 28.30666 | 39018 ft | 494 kts | 105° |
| 2026-05-05 07:49 | 36.26188 | 28.38788 | 39021 ft | 495 kts | 106° |
| 2026-05-05 07:49 | 36.24106 | 28.46859 | 39012 ft | 495 kts | 106° |
| 2026-05-05 07:50 | 36.22005 | 28.54981 | 39012 ft | 495 kts | 106° |
| 2026-05-05 07:50 | 36.19896 | 28.63088 | 39012 ft | 495 kts | 106° |
| 2026-05-05 07:51 | 36.17781 | 28.71189 | 39011 ft | 494 kts | 106° |
| 2026-05-05 07:51 | 36.15664 | 28.79283 | 39009 ft | 494 kts | 106° |
| 2026-05-05 07:52 | 36.13547 | 28.87353 | 39011 ft | 493 kts | 106° |
| 2026-05-05 07:52 | 36.11425 | 28.95418 | 39009 ft | 493 kts | 106° |
| 2026-05-05 07:53 | 36.09300 | 29.03468 | 39009 ft | 492 kts | 107° |
| 2026-05-05 07:53 | 36.07172 | 29.11506 | 39005 ft | 492 kts | 107° |
| 2026-05-05 07:54 | 36.05041 | 29.19531 | 39003 ft | 491 kts | 107° |
| 2026-05-05 07:54 | 36.02904 | 29.27553 | 39002 ft | 491 kts | 107° |
| 2026-05-05 07:55 | 36.00763 | 29.35564 | 39006 ft | 491 kts | 107° |
| 2026-05-05 07:55 | 35.98616 | 29.43580 | 39001 ft | 491 kts | 107° |
| 2026-05-05 07:56 | 35.96462 | 29.51597 | 39003 ft | 492 kts | 107° |
| 2026-05-05 07:56 | 35.94302 | 29.59604 | 39002 ft | 492 kts | 107° |
| 2026-05-05 07:57 | 35.92131 | 29.67615 | 38999 ft | 493 kts | 107° |
| 2026-05-05 07:57 | 35.89950 | 29.75645 | 38998 ft | 493 kts | 107° |
| 2026-05-05 07:58 | 35.87764 | 29.83672 | 38997 ft | 494 kts | 107° |
| 2026-05-05 07:58 | 35.85588 | 29.91643 | 39000 ft | 494 kts | 107° |
| 2026-05-05 07:59 | 35.83388 | 29.99676 | 39001 ft | 495 kts | 107° |
| 2026-05-05 07:59 | 35.81293 | 30.07757 | 39000 ft | 495 kts | 105° |
| 2026-05-05 08:00 | 35.79291 | 30.15867 | 38999 ft | 495 kts | 105° |
| 2026-05-05 08:00 | 35.77274 | 30.23975 | 39001 ft | 495 kts | 106° |
| 2026-05-05 08:01 | 35.75229 | 30.32088 | 38998 ft | 496 kts | 106° |
| 2026-05-05 08:01 | 35.73174 | 30.40188 | 39000 ft | 496 kts | 106° |
| 2026-05-05 08:02 | 35.71111 | 30.48295 | 38998 ft | 496 kts | 106° |
| 2026-05-05 08:02 | 35.69045 | 30.56395 | 38998 ft | 496 kts | 106° |
| 2026-05-05 08:03 | 35.66972 | 30.64500 | 38993 ft | 497 kts | 106° |
| 2026-05-05 08:03 | 35.64893 | 30.72602 | 39004 ft | 497 kts | 107° |
| 2026-05-05 08:04 | 35.62807 | 30.80708 | 39000 ft | 497 kts | 107° |
| 2026-05-05 08:04 | 35.60722 | 30.88816 | 38993 ft | 498 kts | 107° |
| 2026-05-05 08:05 | 35.58663 | 30.96948 | 38886 ft | 501 kts | 106° |
| 2026-05-05 08:05 | 35.57623 | 31.01065 | 38318 ft | 507 kts | 106° |
| 2026-05-05 08:05 | 35.56578 | 31.05193 | 37700 ft | 505 kts | 106° |
| 2026-05-05 08:06 | 35.55534 | 31.09302 | 37112 ft | 503 kts | 106° |
| 2026-05-05 08:06 | 35.54494 | 31.13382 | 36667 ft | 499 kts | 106° |
| 2026-05-05 08:06 | 35.53457 | 31.17445 | 36075 ft | 498 kts | 105° |
| 2026-05-05 08:06 | 35.52422 | 31.21494 | 35472 ft | 498 kts | 105° |
| 2026-05-05 08:07 | 35.51395 | 31.25504 | 34834 ft | 499 kts | 105° |
| 2026-05-05 08:07 | 35.50337 | 31.29628 | 34140 ft | 501 kts | 105° |
| 2026-05-05 08:07 | 35.49301 | 31.33662 | 33360 ft | 504 kts | 104° |
| 2026-05-05 08:07 | 35.48247 | 31.37760 | 32683 ft | 503 kts | 104° |
| 2026-05-05 08:08 | 35.47196 | 31.41832 | 32209 ft | 498 kts | 104° |
| 2026-05-05 08:08 | 35.46154 | 31.45865 | 31701 ft | 494 kts | 104° |
| 2026-05-05 08:08 | 35.45119 | 31.49862 | 31218 ft | 490 kts | 103° |
| 2026-05-05 08:08 | 35.44093 | 31.53824 | 30733 ft | 486 kts | 103° |
| 2026-05-05 08:09 | 35.43072 | 31.57761 | 30256 ft | 483 kts | 103° |
| 2026-05-05 08:09 | 35.42057 | 31.61671 | 29715 ft | 480 kts | 103° |
| 2026-05-05 08:09 | 35.41047 | 31.65556 | 29175 ft | 476 kts | 103° |
| 2026-05-05 08:09 | 35.40043 | 31.69409 | 28659 ft | 472 kts | 103° |
| 2026-05-05 08:10 | 35.39047 | 31.73230 | 28160 ft | 468 kts | 103° |
| 2026-05-05 08:10 | 35.38060 | 31.77011 | 27666 ft | 465 kts | 103° |
| 2026-05-05 08:10 | 35.37077 | 31.80767 | 27191 ft | 461 kts | 103° |
| 2026-05-05 08:10 | 35.36101 | 31.84496 | 26704 ft | 458 kts | 103° |
| 2026-05-05 08:11 | 35.35130 | 31.88201 | 26226 ft | 455 kts | 103° |
| 2026-05-05 08:11 | 35.34164 | 31.91878 | 25755 ft | 453 kts | 103° |
| 2026-05-05 08:11 | 35.33202 | 31.95542 | 25258 ft | 451 kts | 102° |
| 2026-05-05 08:11 | 35.32244 | 31.99184 | 24776 ft | 449 kts | 102° |
| 2026-05-05 08:12 | 35.31285 | 32.02822 | 24292 ft | 448 kts | 102° |
| 2026-05-05 08:12 | 35.30328 | 32.06446 | 23797 ft | 447 kts | 102° |
| 2026-05-05 08:12 | 35.29373 | 32.10092 | 23028 ft | 452 kts | 102° |
| 2026-05-05 08:12 | 35.28418 | 32.13753 | 22449 ft | 450 kts | 103° |
| 2026-05-05 08:13 | 35.27789 | 32.16164 | 22111 ft | 448 kts | 103° |
| 2026-05-05 08:13 | 35.26847 | 32.19771 | 21632 ft | 444 kts | 103° |
| 2026-05-05 08:13 | 35.25908 | 32.23361 | 21156 ft | 440 kts | 103° |
| 2026-05-05 08:13 | 35.24977 | 32.26913 | 20684 ft | 437 kts | 103° |
| 2026-05-05 08:14 | 35.24052 | 32.30438 | 20218 ft | 434 kts | 103° |
| 2026-05-05 08:14 | 35.23131 | 32.33943 | 19746 ft | 431 kts | 104° |
| 2026-05-05 08:14 | 35.22216 | 32.37424 | 19282 ft | 428 kts | 104° |
| 2026-05-05 08:14 | 35.21306 | 32.40881 | 18814 ft | 426 kts | 104° |
| 2026-05-05 08:15 | 35.20399 | 32.44317 | 18355 ft | 424 kts | 105° |
| 2026-05-05 08:15 | 35.19497 | 32.47734 | 17844 ft | 421 kts | 105° |
| 2026-05-05 08:15 | 35.18600 | 32.51123 | 17370 ft | 417 kts | 105° |
| 2026-05-05 08:15 | 35.17712 | 32.54474 | 16920 ft | 413 kts | 105° |
| 2026-05-05 08:16 | 35.16831 | 32.57798 | 16467 ft | 408 kts | 105° |
| 2026-05-05 08:16 | 35.15959 | 32.61082 | 16016 ft | 405 kts | 105° |
| 2026-05-05 08:16 | 35.15093 | 32.64338 | 15588 ft | 401 kts | 105° |
| 2026-05-05 08:16 | 35.14237 | 32.67558 | 15160 ft | 396 kts | 105° |
| 2026-05-05 08:17 | 35.13388 | 32.70744 | 14729 ft | 393 kts | 105° |
| 2026-05-05 08:17 | 35.12546 | 32.73900 | 14331 ft | 388 kts | 105° |
| 2026-05-05 08:17 | 35.11713 | 32.77021 | 13913 ft | 385 kts | 106° |
| 2026-05-05 08:17 | 35.10886 | 32.80118 | 13470 ft | 382 kts | 105° |
| 2026-05-05 08:18 | 35.10066 | 32.83182 | 13015 ft | 378 kts | 105° |
| 2026-05-05 08:18 | 35.09253 | 32.86223 | 12584 ft | 375 kts | 106° |
| 2026-05-05 08:18 | 35.08446 | 32.89233 | 12183 ft | 370 kts | 106° |
| 2026-05-05 08:18 | 35.07653 | 32.92181 | 11777 ft | 361 kts | 107° |
| 2026-05-05 08:19 | 35.06870 | 32.95047 | 11448 ft | 350 kts | 108° |
| 2026-05-05 08:19 | 35.06084 | 32.97799 | 11201 ft | 340 kts | 108° |
| 2026-05-05 08:19 | 35.05302 | 33.00501 | 10945 ft | 334 kts | 108° |
| 2026-05-05 08:19 | 35.04536 | 33.03145 | 10641 ft | 326 kts | 109° |
| 2026-05-05 08:20 | 35.03787 | 33.05739 | 10430 ft | 320 kts | 109° |
| 2026-05-05 08:20 | 35.03058 | 33.08268 | 10286 ft | 312 kts | 109° |
| 2026-05-05 08:20 | 35.02356 | 33.10704 | 10155 ft | 304 kts | 109° |
| 2026-05-05 08:20 | 35.01655 | 33.13136 | 10026 ft | 296 kts | 109° |
| 2026-05-05 08:21 | 35.00988 | 33.15448 | 9901 ft | 289 kts | 109° |
| 2026-05-05 08:21 | 35.00321 | 33.17757 | 9614 ft | 289 kts | 109° |
| 2026-05-05 08:21 | 34.99655 | 33.20063 | 9306 ft | 288 kts | 110° |
| 2026-05-05 08:21 | 34.98991 | 33.22364 | 9014 ft | 287 kts | 110° |
| 2026-05-05 08:22 | 34.98328 | 33.24656 | 8734 ft | 286 kts | 110° |
| 2026-05-05 08:22 | 34.97669 | 33.26935 | 8475 ft | 284 kts | 110° |
| 2026-05-05 08:22 | 34.97015 | 33.29192 | 8210 ft | 282 kts | 110° |
| 2026-05-05 08:22 | 34.96363 | 33.31442 | 7924 ft | 281 kts | 110° |
| 2026-05-05 08:23 | 34.95712 | 33.33683 | 7653 ft | 280 kts | 110° |
| 2026-05-05 08:23 | 34.95063 | 33.35916 | 7378 ft | 279 kts | 110° |
| 2026-05-05 08:23 | 34.94415 | 33.38144 | 7086 ft | 278 kts | 110° |
| 2026-05-05 08:23 | 34.93769 | 33.40361 | 6804 ft | 277 kts | 110° |
| 2026-05-05 08:24 | 34.93126 | 33.42571 | 6544 ft | 276 kts | 110° |
| 2026-05-05 08:24 | 34.92480 | 33.44783 | 6278 ft | 278 kts | 110° |
| 2026-05-05 08:24 | 34.91828 | 33.47017 | 5962 ft | 281 kts | 110° |
| 2026-05-05 08:24 | 34.91174 | 33.49267 | 5642 ft | 282 kts | 110° |
| 2026-05-05 08:25 | 34.90529 | 33.51521 | 5365 ft | 281 kts | 109° |
| 2026-05-05 08:25 | 34.89886 | 33.53765 | 5090 ft | 281 kts | 109° |
| 2026-05-05 08:25 | 34.89236 | 33.56017 | 4814 ft | 282 kts | 109° |
| 2026-05-05 08:25 | 34.88585 | 33.58269 | 4510 ft | 282 kts | 109° |
| 2026-05-05 08:26 | 34.87933 | 33.60522 | 4206 ft | 281 kts | 109° |
| 2026-05-05 08:26 | 34.87293 | 33.62732 | 3933 ft | 273 kts | 109° |
| 2026-05-05 08:26 | 34.86666 | 33.64898 | 3640 ft | 271 kts | 109° |
| 2026-05-05 08:26 | 34.86041 | 33.67051 | 3406 ft | 269 kts | 109° |
| 2026-05-05 08:27 | 34.85604 | 33.69237 | 3193 ft | 264 kts | 89° |
| 2026-05-05 08:27 | 34.85961 | 33.71378 | 3067 ft | 256 kts | 68° |
| 2026-05-05 08:27 | 34.86616 | 33.73372 | 2910 ft | 252 kts | 66° |
| 2026-05-05 08:27 | 34.87294 | 33.75329 | 2776 ft | 249 kts | 66° |
| 2026-05-05 08:28 | 34.87974 | 33.77270 | 2658 ft | 249 kts | 65° |
| 2026-05-05 08:28 | 34.88651 | 33.79209 | 2581 ft | 249 kts | 65° |
| 2026-05-05 08:28 | 34.89328 | 33.81154 | 2521 ft | 250 kts | 65° |
| 2026-05-05 08:28 | 34.90218 | 33.82941 | 2447 ft | 247 kts | 44° |
| 2026-05-05 08:29 | 34.91535 | 33.84332 | 2087 ft | 253 kts | 37° |
| 2026-05-05 08:29 | 34.93043 | 33.85404 | 1694 ft | 252 kts | 13° |
| 2026-05-05 08:29 | 34.94743 | 33.85431 | 1549 ft | 242 kts | 342° |
| 2026-05-05 08:30 | 34.96938 | 33.82710 | 1505 ft | 232 kts | 294° |
| 2026-05-05 08:30 | 34.97592 | 33.80916 | 1507 ft | 231 kts | 295° |
| 2026-05-05 08:30 | 34.98261 | 33.79128 | 1497 ft | 231 kts | 291° |
| 2026-05-05 08:30 | 34.98363 | 33.77203 | 1480 ft | 232 kts | 254° |
| 2026-05-05 08:31 | 34.97627 | 33.75482 | 1529 ft | 230 kts | 238° |
| 2026-05-05 08:31 | 34.96664 | 33.73920 | 1514 ft | 230 kts | 233° |
| 2026-05-05 08:31 | 34.95595 | 33.72457 | 1509 ft | 232 kts | 228° |
| 2026-05-05 08:31 | 34.94460 | 33.71072 | 1509 ft | 226 kts | 227° |
| 2026-05-05 08:32 | 34.93376 | 33.69754 | 1332 ft | 217 kts | 227° |
| 2026-05-05 08:32 | 34.92324 | 33.68463 | 1084 ft | 212 kts | 227° |
| 2026-05-05 08:32 | 34.91304 | 33.67212 | 822 ft | 202 kts | 227° |
| 2026-05-05 08:32 | 34.90343 | 33.66032 | 587 ft | 190 kts | 227° |
| 2026-05-05 08:33 | 34.89448 | 33.64936 | 406 ft | 173 kts | 227° |
| 2026-05-05 08:33 | 34.88638 | 33.63958 | 183 ft | 156 kts | 227° |
| 2026-05-05 08:33 | 34.87898 | 33.63046 | 22 ft | 144 kts | 228° |
| 2026-05-05 08:33 | 34.87285 | 33.62284 | 20 ft | 105 kts | 225° |
| 2026-05-05 08:34 | 34.86871 | 33.61786 | 20 ft | 62 kts | 223° |
| 2026-05-05 08:34 | 34.86671 | 33.61539 | 19 ft | 19 kts | 224° |
| 2026-05-05 08:34 | 34.86611 | 33.61420 | 19 ft | 9 kts | 277° |
| 2026-05-05 08:34 | 34.86647 | 33.61362 | 20 ft | 9 kts | 303° |
| 2026-05-05 08:35 | 34.86690 | 33.61309 | 20 ft | 9 kts | 317° |
| 2026-05-05 08:35 | 34.86747 | 33.61281 | 20 ft | 9 kts | 7° |
| 2026-05-05 08:35 | 34.86800 | 33.61328 | 20 ft | 10 kts | 45° |
| 2026-05-05 08:35 | 34.86850 | 33.61393 | 20 ft | 11 kts | 44° |
| 2026-05-05 08:36 | 34.86905 | 33.61461 | 20 ft | 12 kts | 45° |
| 2026-05-05 08:36 | 34.86966 | 33.61535 | 21 ft | 13 kts | 42° |
| 2026-05-05 08:36 | 34.87030 | 33.61604 | 20 ft | 12 kts | 40° |
| 2026-05-05 08:36 | 34.87092 | 33.61675 | 21 ft | 12 kts | 47° |
| 2026-05-05 08:37 | 34.87147 | 33.61752 | 20 ft | 12 kts | 49° |
| 2026-05-05 08:37 | 34.87209 | 33.61831 | 21 ft | 13 kts | 45° |
| 2026-05-05 08:37 | 34.87276 | 33.61913 | 20 ft | 14 kts | 45° |
| 2026-05-05 08:37 | 34.87348 | 33.62002 | 20 ft | 15 kts | 45° |
| 2026-05-05 08:38 | 34.87425 | 33.62094 | 21 ft | 16 kts | 45° |
| 2026-05-05 08:38 | 34.87506 | 33.62193 | 19 ft | 17 kts | 45° |
| 2026-05-05 08:38 | 34.87592 | 33.62297 | 19 ft | 18 kts | 46° |
| 2026-05-05 08:38 | 34.87677 | 33.62403 | 19 ft | 17 kts | 45° |
| 2026-05-05 08:39 | 34.87761 | 33.62505 | 19 ft | 17 kts | 45° |
| 2026-05-05 08:39 | 34.87842 | 33.62603 | 19 ft | 16 kts | 45° |
| 2026-05-05 08:39 | 34.87918 | 33.62699 | 19 ft | 15 kts | 45° |
| 2026-05-05 08:39 | 34.87993 | 33.62788 | 19 ft | 15 kts | 45° |
| 2026-05-05 08:40 | 34.88064 | 33.62875 | 19 ft | 14 kts | 45° |
| 2026-05-05 08:40 | 34.88132 | 33.62958 | 19 ft | 14 kts | 45° |
| 2026-05-05 08:40 | 34.88196 | 33.63038 | 19 ft | 13 kts | 45° |
| 2026-05-05 08:40 | 34.88259 | 33.63116 | 21 ft | 13 kts | 45° |
| 2026-05-05 08:41 | 34.88320 | 33.63191 | 19 ft | 12 kts | 44° |
| 2026-05-05 08:41 | 34.88383 | 33.63267 | 19 ft | 13 kts | 45° |
| 2026-05-05 08:41 | 34.88432 | 33.63318 | 22 ft | 7 kts | 26° |
| 2026-05-05 08:41 | 34.88479 | 33.63303 | 20 ft | 8 kts | 320° |
| 2026-05-05 08:42 | 34.88519 | 33.63257 | 19 ft | 8 kts | 316° |
| 2026-05-05 08:42 | 34.88561 | 33.63206 | 19 ft | 9 kts | 315° |
| 2026-05-05 08:42 | 34.88590 | 33.63162 | 19 ft | 6 kts | 294° |
| 2026-05-05 08:42 | 34.88588 | 33.63111 | 21 ft | 6 kts | 244° |
| 2026-05-05 08:43 | 34.88566 | 33.63080 | 19 ft | 3 kts | 226° |
| 2026-05-05 08:43 | 34.88560 | 33.63073 | 19 ft | 1 kts | 226° |
| 2026-05-05 08:43 | 34.88559 | 33.63072 | 19 ft | 0 kts | 226° |